sensor_id;sensor_type;location;lat;lon;timestamp;pressure;altitude;pressure_sealevel;temperature;humidity
19576;BME280;41589;51.196;7.074;2023-04-06T00:04:34;99137.22;;;7.22;36.57
19576;BME280;41589;51.196;7.074;2023-04-06T00:09:34;99127.34;;;7.17;36.81
19576;BME280;41589;51.196;7.074;2023-04-06T00:14:35;99131.63;;;7.06;37.31
19576;BME280;41589;51.196;7.074;2023-04-06T00:19:35;99129.09;;;6.95;37.36
19576;BME280;41589;51.196;7.074;2023-04-06T00:24:36;99126.13;;;6.86;37.49
19576;BME280;41589;51.196;7.074;2023-04-06T00:29:36;99116.16;;;6.68;37.88
19576;BME280;41589;51.196;7.074;2023-04-06T00:34:36;99121.41;;;6.66;37.92
19576;BME280;41589;51.196;7.074;2023-04-06T00:39:37;99120.00;;;6.58;38.04
19576;BME280;41589;51.196;7.074;2023-04-06T00:44:37;99110.53;;;6.52;38.45
19576;BME280;41589;51.196;7.074;2023-04-06T00:49:38;99109.06;;;6.48;38.46
19576;BME280;41589;51.196;7.074;2023-04-06T00:54:38;99104.97;;;6.52;38.44
19576;BME280;41589;51.196;7.074;2023-04-06T00:59:40;99094.47;;;6.40;38.37
19576;BME280;41589;51.196;7.074;2023-04-06T01:04:43;99091.75;;;6.36;38.72
19576;BME280;41589;51.196;7.074;2023-04-06T01:09:55;99084.16;;;6.37;38.52
19576;BME280;41589;51.196;7.074;2023-04-06T01:14:59;99075.44;;;6.35;38.61
19576;BME280;41589;51.196;7.074;2023-04-06T01:20:02;99070.84;;;6.25;38.75
19576;BME280;41589;51.196;7.074;2023-04-06T01:25:06;99066.63;;;6.17;38.84
19576;BME280;41589;51.196;7.074;2023-04-06T01:30:14;99062.50;;;6.21;38.81
19576;BME280;41589;51.196;7.074;2023-04-06T01:35:36;99062.59;;;6.18;39.11
19576;BME280;41589;51.196;7.074;2023-04-06T01:40:46;99049.13;;;6.13;39.00
19576;BME280;41589;51.196;7.074;2023-04-06T01:45:48;99058.03;;;6.07;39.31
19576;BME280;41589;51.196;7.074;2023-04-06T01:50:53;99044.16;;;6.04;39.21
19576;BME280;41589;51.196;7.074;2023-04-06T01:55:59;99048.44;;;6.08;39.18
19576;BME280;41589;51.196;7.074;2023-04-06T02:01:05;99038.56;;;6.04;39.36
19576;BME280;41589;51.196;7.074;2023-04-06T02:06:18;99036.22;;;6.02;39.44
19576;BME280;41589;51.196;7.074;2023-04-06T02:11:19;99038.13;;;6.05;39.28
19576;BME280;41589;51.196;7.074;2023-04-06T02:16:23;99040.94;;;6.05;39.43
19576;BME280;41589;51.196;7.074;2023-04-06T02:21:23;99042.59;;;6.03;39.59
19576;BME280;41589;51.196;7.074;2023-04-06T02:26:24;99041.53;;;5.97;39.55
19576;BME280;41589;51.196;7.074;2023-04-06T02:31:25;99037.25;;;5.92;39.49
19576;BME280;41589;51.196;7.074;2023-04-06T02:36:26;99039.06;;;5.99;39.46
19576;BME280;41589;51.196;7.074;2023-04-06T02:41:27;99035.84;;;6.00;39.97
19576;BME280;41589;51.196;7.074;2023-04-06T02:46:29;99027.56;;;5.97;39.68
19576;BME280;41589;51.196;7.074;2023-04-06T02:51:29;99027.22;;;5.95;39.55
19576;BME280;41589;51.196;7.074;2023-04-06T02:56:40;99015.16;;;5.98;39.80
19576;BME280;41589;51.196;7.074;2023-04-06T03:01:41;99019.31;;;5.90;39.68
19576;BME280;41589;51.196;7.074;2023-04-06T03:06:41;99014.91;;;5.92;39.74
19576;BME280;41589;51.196;7.074;2023-04-06T03:11:53;99015.41;;;5.87;39.78
19576;BME280;41589;51.196;7.074;2023-04-06T03:16:55;99012.59;;;5.87;40.13
19576;BME280;41589;51.196;7.074;2023-04-06T03:21:58;99010.94;;;5.90;39.92
19576;BME280;41589;51.196;7.074;2023-04-06T03:26:59;99012.16;;;5.89;39.64
19576;BME280;41589;51.196;7.074;2023-04-06T03:32:01;99014.19;;;5.88;39.99
19576;BME280;41589;51.196;7.074;2023-04-06T03:37:12;99012.25;;;5.85;39.93
19576;BME280;41589;51.196;7.074;2023-04-06T03:42:19;99007.16;;;5.80;39.92
19576;BME280;41589;51.196;7.074;2023-04-06T03:47:25;99012.41;;;5.78;40.13
19576;BME280;41589;51.196;7.074;2023-04-06T03:52:30;99007.34;;;5.73;40.15
19576;BME280;41589;51.196;7.074;2023-04-06T03:57:31;99010.34;;;5.82;39.67
19576;BME280;41589;51.196;7.074;2023-04-06T04:02:31;99009.19;;;5.79;39.82
19576;BME280;41589;51.196;7.074;2023-04-06T04:07:32;99009.97;;;5.80;39.74
19576;BME280;41589;51.196;7.074;2023-04-06T04:12:34;99011.41;;;5.68;39.90
19576;BME280;41589;51.196;7.074;2023-04-06T04:17:34;99010.72;;;5.64;39.98
19576;BME280;41589;51.196;7.074;2023-04-06T04:22:35;99011.94;;;5.63;39.61
19576;BME280;41589;51.196;7.074;2023-04-06T04:27:35;99014.38;;;5.61;39.93
19576;BME280;41589;51.196;7.074;2023-04-06T04:32:36;99013.66;;;5.57;39.87
19576;BME280;41589;51.196;7.074;2023-04-06T04:37:40;99011.44;;;5.48;40.19
19576;BME280;41589;51.196;7.074;2023-04-06T04:42:42;99007.53;;;5.46;40.17
19576;BME280;41589;51.196;7.074;2023-04-06T04:47:47;99017.91;;;5.45;40.34
19576;BME280;41589;51.196;7.074;2023-04-06T04:52:50;99007.25;;;5.40;40.17
19576;BME280;41589;51.196;7.074;2023-04-06T04:57:55;99009.88;;;5.47;39.85
19576;BME280;41589;51.196;7.074;2023-04-06T05:03:04;98995.91;;;5.47;40.30
19576;BME280;41589;51.196;7.074;2023-04-06T05:08:09;99005.03;;;5.51;39.96
19576;BME280;41589;51.196;7.074;2023-04-06T05:13:15;99017.03;;;5.48;39.83
19576;BME280;41589;51.196;7.074;2023-04-06T05:18:18;99012.44;;;5.58;39.67
19576;BME280;41589;51.196;7.074;2023-04-06T05:23:19;99011.75;;;5.54;39.54
19576;BME280;41589;51.196;7.074;2023-04-06T05:28:20;99009.66;;;5.58;39.45
19576;BME280;41589;51.196;7.074;2023-04-06T05:33:20;99008.38;;;5.63;39.53
19576;BME280;41589;51.196;7.074;2023-04-06T05:38:33;99000.25;;;5.68;39.22
19576;BME280;41589;51.196;7.074;2023-04-06T05:43:41;99005.88;;;5.85;39.28
19576;BME280;41589;51.196;7.074;2023-04-06T05:48:41;99010.63;;;6.04;38.88
19576;BME280;41589;51.196;7.074;2023-04-06T05:53:44;99008.09;;;6.09;38.54
19576;BME280;41589;51.196;7.074;2023-04-06T05:58:45;99017.34;;;6.23;38.18
19576;BME280;41589;51.196;7.074;2023-04-06T06:03:48;99011.81;;;6.39;38.07
19576;BME280;41589;51.196;7.074;2023-04-06T06:08:52;99008.81;;;6.62;37.92
19576;BME280;41589;51.196;7.074;2023-04-06T06:13:54;99008.97;;;6.88;37.70
19576;BME280;41589;51.196;7.074;2023-04-06T06:18:54;99009.53;;;7.24;37.82
19576;BME280;41589;51.196;7.074;2023-04-06T06:23:55;99006.78;;;7.37;36.92
19576;BME280;41589;51.196;7.074;2023-04-06T06:28:56;99010.63;;;7.56;36.58
19576;BME280;41589;51.196;7.074;2023-04-06T06:33:57;99006.19;;;7.71;36.71
19576;BME280;41589;51.196;7.074;2023-04-06T06:38:59;99006.41;;;7.90;36.37
19576;BME280;41589;51.196;7.074;2023-04-06T06:44:01;99006.56;;;8.11;35.95
19576;BME280;41589;51.196;7.074;2023-04-06T06:49:02;99005.00;;;8.23;36.04
19576;BME280;41589;51.196;7.074;2023-04-06T06:54:04;98996.91;;;8.38;36.12
19576;BME280;41589;51.196;7.074;2023-04-06T06:59:05;98996.88;;;8.63;35.68
19576;BME280;41589;51.196;7.074;2023-04-06T07:04:09;99005.19;;;8.89;35.36
19576;BME280;41589;51.196;7.074;2023-04-06T07:09:13;98996.75;;;9.23;35.59
19576;BME280;41589;51.196;7.074;2023-04-06T07:14:16;98982.69;;;9.45;34.78
19576;BME280;41589;51.196;7.074;2023-04-06T07:19:16;98995.16;;;9.88;35.10
19576;BME280;41589;51.196;7.074;2023-04-06T07:24:17;98989.50;;;10.28;34.17
19576;BME280;41589;51.196;7.074;2023-04-06T07:29:18;98987.75;;;10.62;34.85
19576;BME280;41589;51.196;7.074;2023-04-06T07:34:19;98984.47;;;10.73;33.71
19576;BME280;41589;51.196;7.074;2023-04-06T07:39:20;98987.28;;;11.09;33.61
19576;BME280;41589;51.196;7.074;2023-04-06T07:44:22;98989.19;;;11.40;32.83
19576;BME280;41589;51.196;7.074;2023-04-06T07:49:23;98981.03;;;11.42;32.49
19576;BME280;41589;51.196;7.074;2023-04-06T07:54:24;98979.56;;;11.65;32.08
19576;BME280;41589;51.196;7.074;2023-04-06T07:59:25;98981.00;;;12.11;32.39
19576;BME280;41589;51.196;7.074;2023-04-06T08:04:25;98982.06;;;12.80;31.54
19576;BME280;41589;51.196;7.074;2023-04-06T08:09:26;98975.44;;;13.22;30.93
19576;BME280;41589;51.196;7.074;2023-04-06T08:14:27;98969.88;;;13.42;30.62
19576;BME280;41589;51.196;7.074;2023-04-06T08:19:28;98969.66;;;13.84;30.97
19576;BME280;41589;51.196;7.074;2023-04-06T08:24:29;98959.69;;;14.24;29.84
19576;BME280;41589;51.196;7.074;2023-04-06T08:29:31;98952.66;;;14.69;29.36
19576;BME280;41589;51.196;7.074;2023-04-06T08:34:32;98969.66;;;15.10;28.95
19576;BME280;41589;51.196;7.074;2023-04-06T08:39:33;98964.53;;;15.14;28.30
19576;BME280;41589;51.196;7.074;2023-04-06T08:44:34;98965.94;;;15.24;27.79
19576;BME280;41589;51.196;7.074;2023-04-06T08:49:37;98958.53;;;15.58;27.74
19576;BME280;41589;51.196;7.074;2023-04-06T08:54:38;98961.50;;;15.70;27.88
19576;BME280;41589;51.196;7.074;2023-04-06T08:59:39;98964.13;;;15.73;27.96
19576;BME280;41589;51.196;7.074;2023-04-06T09:04:40;98966.50;;;15.80;28.08
19576;BME280;41589;51.196;7.074;2023-04-06T09:09:41;98957.84;;;16.27;27.66
19576;BME280;41589;51.196;7.074;2023-04-06T09:14:48;98959.31;;;16.59;26.96
19576;BME280;41589;51.196;7.074;2023-04-06T09:19:49;98957.53;;;16.19;26.63
19576;BME280;41589;51.196;7.074;2023-04-06T09:24:53;98958.13;;;15.97;27.25
19576;BME280;41589;51.196;7.074;2023-04-06T09:30:06;98960.19;;;15.97;27.26
19576;BME280;41589;51.196;7.074;2023-04-06T09:35:08;98962.34;;;15.76;27.46
19576;BME280;41589;51.196;7.074;2023-04-06T09:40:09;98951.50;;;15.74;27.26
19576;BME280;41589;51.196;7.074;2023-04-06T09:45:10;98951.88;;;15.87;27.34
19576;BME280;41589;51.196;7.074;2023-04-06T09:50:14;98951.34;;;15.89;27.33
19576;BME280;41589;51.196;7.074;2023-04-06T09:55:23;98949.78;;;15.82;27.37
19576;BME280;41589;51.196;7.074;2023-04-06T10:00:25;98947.63;;;15.72;27.52
19576;BME280;41589;51.196;7.074;2023-04-06T10:05:55;98948.91;;;15.50;27.69
19576;BME280;41589;51.196;7.074;2023-04-06T10:10:58;98939.28;;;15.94;27.97
19576;BME280;41589;51.196;7.074;2023-04-06T10:16:00;98941.19;;;16.08;27.12
19576;BME280;41589;51.196;7.074;2023-04-06T10:21:11;98948.81;;;16.28;27.26
19576;BME280;41589;51.196;7.074;2023-04-06T10:26:16;98931.91;;;16.51;27.73
19576;BME280;41589;51.196;7.074;2023-04-06T10:31:25;98938.56;;;16.90;27.87
19576;BME280;41589;51.196;7.074;2023-04-06T10:36:28;98933.53;;;17.28;27.77
19576;BME280;41589;51.196;7.074;2023-04-06T10:41:42;98930.69;;;17.39;27.35
19576;BME280;41589;51.196;7.074;2023-04-06T10:46:52;98928.97;;;17.70;27.25
19576;BME280;41589;51.196;7.074;2023-04-06T10:51:55;98927.66;;;17.71;27.43
19576;BME280;41589;51.196;7.074;2023-04-06T10:56:55;98913.13;;;17.52;26.78
19576;BME280;41589;51.196;7.074;2023-04-06T11:01:56;98917.75;;;17.44;26.94
19576;BME280;41589;51.196;7.074;2023-04-06T11:06:56;98924.75;;;17.43;26.75
19576;BME280;41589;51.196;7.074;2023-04-06T11:11:58;98922.63;;;17.10;26.83
19576;BME280;41589;51.196;7.074;2023-04-06T11:16:58;98922.66;;;16.61;27.16
19576;BME280;41589;51.196;7.074;2023-04-06T11:22:06;98923.50;;;16.30;27.01
19576;BME280;41589;51.196;7.074;2023-04-06T11:27:07;98919.44;;;16.00;27.92
19576;BME280;41589;51.196;7.074;2023-04-06T11:32:08;98916.59;;;16.42;28.10
19576;BME280;41589;51.196;7.074;2023-04-06T11:37:10;98910.78;;;16.63;27.72
19576;BME280;41589;51.196;7.074;2023-04-06T11:42:11;98895.44;;;16.43;27.35
19576;BME280;41589;51.196;7.074;2023-04-06T11:47:12;98909.56;;;16.75;27.97
19576;BME280;41589;51.196;7.074;2023-04-06T11:52:27;98896.63;;;16.74;26.98
19576;BME280;41589;51.196;7.074;2023-04-06T11:57:28;98892.25;;;16.67;27.32
19576;BME280;41589;51.196;7.074;2023-04-06T12:02:29;98892.28;;;16.79;27.49
19576;BME280;41589;51.196;7.074;2023-04-06T12:07:29;98887.88;;;16.83;27.93
19576;BME280;41589;51.196;7.074;2023-04-06T12:12:30;98897.69;;;16.77;28.06
19576;BME280;41589;51.196;7.074;2023-04-06T12:17:31;98889.22;;;16.39;28.41
19576;BME280;41589;51.196;7.074;2023-04-06T12:22:32;98894.06;;;16.28;28.68
19576;BME280;41589;51.196;7.074;2023-04-06T12:27:33;98898.09;;;16.10;29.29
19576;BME280;41589;51.196;7.074;2023-04-06T12:32:33;98885.22;;;16.14;29.16
19576;BME280;41589;51.196;7.074;2023-04-06T12:37:33;98887.50;;;16.10;29.35
19576;BME280;41589;51.196;7.074;2023-04-06T12:42:34;98890.13;;;16.14;29.27
19576;BME280;41589;51.196;7.074;2023-04-06T12:47:35;98889.31;;;16.08;29.97
19576;BME280;41589;51.196;7.074;2023-04-06T12:52:36;98880.22;;;15.98;29.87
19576;BME280;41589;51.196;7.074;2023-04-06T12:57:36;98888.53;;;16.07;29.97
19576;BME280;41589;51.196;7.074;2023-04-06T13:02:37;98879.50;;;15.72;30.47
19576;BME280;41589;51.196;7.074;2023-04-06T13:07:37;98883.41;;;15.74;30.17
19576;BME280;41589;51.196;7.074;2023-04-06T13:12:38;98876.88;;;15.68;30.73
19576;BME280;41589;51.196;7.074;2023-04-06T13:17:38;98874.47;;;15.87;30.77
19576;BME280;41589;51.196;7.074;2023-04-06T13:22:38;98877.59;;;15.63;30.78
19576;BME280;41589;51.196;7.074;2023-04-06T13:27:40;98873.94;;;15.57;30.66
19576;BME280;41589;51.196;7.074;2023-04-06T13:32:41;98874.53;;;15.35;31.51
19576;BME280;41589;51.196;7.074;2023-04-06T13:37:41;98873.81;;;15.14;31.90
19576;BME280;41589;51.196;7.074;2023-04-06T13:42:42;98879.63;;;14.79;32.45
19576;BME280;41589;51.196;7.074;2023-04-06T13:47:44;98883.78;;;14.63;33.34
19576;BME280;41589;51.196;7.074;2023-04-06T13:52:44;98872.47;;;14.43;33.58
19576;BME280;41589;51.196;7.074;2023-04-06T13:57:44;98870.50;;;14.69;33.63
19576;BME280;41589;51.196;7.074;2023-04-06T14:02:45;98881.38;;;14.77;33.34
19576;BME280;41589;51.196;7.074;2023-04-06T14:07:45;98873.81;;;14.48;33.46
19576;BME280;41589;51.196;7.074;2023-04-06T14:12:45;98883.38;;;14.50;34.48
19576;BME280;41589;51.196;7.074;2023-04-06T14:17:46;98880.59;;;14.56;35.09
19576;BME280;41589;51.196;7.074;2023-04-06T14:22:46;98879.25;;;14.31;35.58
19576;BME280;41589;51.196;7.074;2023-04-06T14:27:46;98884.22;;;14.01;36.21
19576;BME280;41589;51.196;7.074;2023-04-06T14:32:47;98895.00;;;13.97;36.73
19576;BME280;41589;51.196;7.074;2023-04-06T14:37:47;98888.94;;;13.89;37.34
19576;BME280;41589;51.196;7.074;2023-04-06T14:42:47;98889.66;;;13.69;37.54
19576;BME280;41589;51.196;7.074;2023-04-06T14:47:48;98882.25;;;13.57;37.64
19576;BME280;41589;51.196;7.074;2023-04-06T14:52:49;98876.47;;;13.51;37.69
19576;BME280;41589;51.196;7.074;2023-04-06T14:57:49;98871.44;;;13.55;37.85
19576;BME280;41589;51.196;7.074;2023-04-06T15:02:50;98875.16;;;13.32;38.32
19576;BME280;41589;51.196;7.074;2023-04-06T15:07:50;98873.47;;;13.11;39.02
19576;BME280;41589;51.196;7.074;2023-04-06T15:12:50;98875.88;;;12.73;40.31
19576;BME280;41589;51.196;7.074;2023-04-06T15:17:51;98874.94;;;12.53;41.49
19576;BME280;41589;51.196;7.074;2023-04-06T15:22:51;98877.84;;;12.34;42.16
19576;BME280;41589;51.196;7.074;2023-04-06T15:27:52;98881.72;;;12.22;42.93
19576;BME280;41589;51.196;7.074;2023-04-06T15:32:57;98879.47;;;12.26;43.46
19576;BME280;41589;51.196;7.074;2023-04-06T15:37:58;98883.25;;;12.23;43.72
19576;BME280;41589;51.196;7.074;2023-04-06T15:42:59;98875.78;;;12.20;44.79
19576;BME280;41589;51.196;7.074;2023-04-06T15:47:59;98881.31;;;12.05;45.53
19576;BME280;41589;51.196;7.074;2023-04-06T15:53:00;98880.00;;;11.92;46.75
19576;BME280;41589;51.196;7.074;2023-04-06T15:58:01;98882.31;;;11.69;47.93
19576;BME280;41589;51.196;7.074;2023-04-06T16:03:04;98883.03;;;11.46;48.87
19576;BME280;41589;51.196;7.074;2023-04-06T16:08:04;98891.53;;;11.27;49.97
19576;BME280;41589;51.196;7.074;2023-04-06T16:13:07;98888.69;;;11.27;50.23
19576;BME280;41589;51.196;7.074;2023-04-06T16:18:20;98886.19;;;11.02;51.80
19576;BME280;41589;51.196;7.074;2023-04-06T16:23:20;98890.91;;;10.96;52.14
19576;BME280;41589;51.196;7.074;2023-04-06T16:28:26;98881.88;;;10.83;53.45
19576;BME280;41589;51.196;7.074;2023-04-06T16:33:27;98887.50;;;10.74;54.04
19576;BME280;41589;51.196;7.074;2023-04-06T16:38:31;98904.69;;;10.57;55.33
19576;BME280;41589;51.196;7.074;2023-04-06T16:43:47;98885.44;;;10.47;55.50
19576;BME280;41589;51.196;7.074;2023-04-06T16:48:58;98892.03;;;10.53;56.10
19576;BME280;41589;51.196;7.074;2023-04-06T16:53:59;98889.06;;;10.56;56.75
19576;BME280;41589;51.196;7.074;2023-04-06T16:58:59;98898.41;;;10.35;57.75
19576;BME280;41589;51.196;7.074;2023-04-06T17:04:00;98886.22;;;10.29;58.09
19576;BME280;41589;51.196;7.074;2023-04-06T17:15:23;98873.19;;;10.04;59.63
19576;BME280;41589;51.196;7.074;2023-04-06T17:26:24;98868.34;;;10.04;61.25
19576;BME280;41589;51.196;7.074;2023-04-06T17:32:06;98868.19;;;9.90;61.61
19576;BME280;41589;51.196;7.074;2023-04-06T17:37:34;98863.34;;;9.90;62.44
19576;BME280;41589;51.196;7.074;2023-04-06T17:43:26;98874.44;;;9.94;62.96
19576;BME280;41589;51.196;7.074;2023-04-06T17:49:03;98857.22;;;9.82;63.45
19576;BME280;41589;51.196;7.074;2023-04-06T17:54:48;98859.19;;;9.73;64.39
19576;BME280;41589;51.196;7.074;2023-04-06T18:00:10;98862.63;;;9.68;64.75
19576;BME280;41589;51.196;7.074;2023-04-06T18:11:31;98858.53;;;9.60;65.56
19576;BME280;41589;51.196;7.074;2023-04-06T18:17:01;98864.69;;;9.45;67.27
19576;BME280;41589;51.196;7.074;2023-04-06T18:28:08;98856.44;;;8.89;83.71
19576;BME280;41589;51.196;7.074;2023-04-06T18:33:32;98856.03;;;8.56;94.92
19576;BME280;41589;51.196;7.074;2023-04-06T18:44:21;98853.22;;;8.34;100.00
19576;BME280;41589;51.196;7.074;2023-04-06T18:49:53;98850.41;;;8.21;100.00
19576;BME280;41589;51.196;7.074;2023-04-06T18:55:23;98848.78;;;8.11;100.00
19576;BME280;41589;51.196;7.074;2023-04-06T19:00:57;98851.81;;;8.04;100.00
19576;BME280;41589;51.196;7.074;2023-04-06T19:06:05;98850.91;;;8.07;100.00
19576;BME280;41589;51.196;7.074;2023-04-06T19:11:14;98851.59;;;7.98;100.00
19576;BME280;41589;51.196;7.074;2023-04-06T19:22:26;98842.09;;;7.83;100.00
19576;BME280;41589;51.196;7.074;2023-04-06T19:32:54;98827.41;;;7.92;100.00
19576;BME280;41589;51.196;7.074;2023-04-06T19:38:13;98837.97;;;7.75;100.00
19576;BME280;41589;51.196;7.074;2023-04-06T19:44:00;98830.56;;;7.68;100.00
19576;BME280;41589;51.196;7.074;2023-04-06T19:49:22;98826.56;;;7.69;100.00
19576;BME280;41589;51.196;7.074;2023-04-06T19:54:44;98827.88;;;7.65;100.00
19576;BME280;41589;51.196;7.074;2023-04-06T20:06:00;98825.66;;;7.72;100.00
19576;BME280;41589;51.196;7.074;2023-04-06T20:11:46;98814.22;;;7.67;100.00
19576;BME280;41589;51.196;7.074;2023-04-06T20:17:29;98807.63;;;7.61;100.00
19576;BME280;41589;51.196;7.074;2023-04-06T20:22:40;98819.47;;;7.65;100.00
19576;BME280;41589;51.196;7.074;2023-04-06T20:27:45;98816.22;;;7.66;100.00
19576;BME280;41589;51.196;7.074;2023-04-06T20:32:46;98812.00;;;7.62;100.00
19576;BME280;41589;51.196;7.074;2023-04-06T20:37:55;98803.13;;;7.63;100.00
19576;BME280;41589;51.196;7.074;2023-04-06T20:42:59;98790.56;;;7.68;100.00
19576;BME280;41589;51.196;7.074;2023-04-06T20:48:03;98798.28;;;7.76;100.00
19576;BME280;41589;51.196;7.074;2023-04-06T20:53:15;98783.28;;;7.70;100.00
19576;BME280;41589;51.196;7.074;2023-04-06T20:58:35;98794.38;;;7.74;100.00
19576;BME280;41589;51.196;7.074;2023-04-06T21:03:53;98789.31;;;7.81;100.00
19576;BME280;41589;51.196;7.074;2023-04-06T21:09:00;98790.56;;;7.80;100.00
19576;BME280;41589;51.196;7.074;2023-04-06T21:14:08;98788.50;;;7.94;100.00
19576;BME280;41589;51.196;7.074;2023-04-06T21:19:11;98778.00;;;8.07;100.00
19576;BME280;41589;51.196;7.074;2023-04-06T21:24:14;98784.47;;;8.17;100.00
19576;BME280;41589;51.196;7.074;2023-04-06T21:29:45;98772.16;;;8.14;100.00
19576;BME280;41589;51.196;7.074;2023-04-06T21:34:55;98774.28;;;8.10;100.00
19576;BME280;41589;51.196;7.074;2023-04-06T21:40:14;98759.41;;;8.00;100.00
19576;BME280;41589;51.196;7.074;2023-04-06T21:45:20;98764.47;;;8.05;100.00
19576;BME280;41589;51.196;7.074;2023-04-06T21:50:32;98759.41;;;8.00;100.00
19576;BME280;41589;51.196;7.074;2023-04-06T22:02:08;98748.19;;;8.13;100.00
19576;BME280;41589;51.196;7.074;2023-04-06T22:07:13;98747.50;;;8.22;100.00
19576;BME280;41589;51.196;7.074;2023-04-06T22:12:14;98743.06;;;8.21;100.00
19576;BME280;41589;51.196;7.074;2023-04-06T22:17:21;98731.06;;;8.20;100.00
19576;BME280;41589;51.196;7.074;2023-04-06T22:22:31;98744.00;;;8.18;100.00
19576;BME280;41589;51.196;7.074;2023-04-06T22:28:04;98739.47;;;8.20;100.00
19576;BME280;41589;51.196;7.074;2023-04-06T22:33:09;98727.31;;;8.14;100.00
19576;BME280;41589;51.196;7.074;2023-04-06T22:38:15;98727.03;;;8.21;100.00
19576;BME280;41589;51.196;7.074;2023-04-06T22:43:21;98732.31;;;8.19;100.00
19576;BME280;41589;51.196;7.074;2023-04-06T22:48:41;98723.81;;;8.23;100.00
19576;BME280;41589;51.196;7.074;2023-04-06T22:54:14;98732.63;;;8.34;100.00
19576;BME280;41589;51.196;7.074;2023-04-06T22:59:16;98723.44;;;8.33;100.00
19576;BME280;41589;51.196;7.074;2023-04-06T23:04:50;98723.06;;;8.31;100.00
19576;BME280;41589;51.196;7.074;2023-04-06T23:09:54;98709.88;;;8.32;100.00
19576;BME280;41589;51.196;7.074;2023-04-06T23:15:08;98702.41;;;8.38;100.00
19576;BME280;41589;51.196;7.074;2023-04-06T23:20:17;98707.09;;;8.41;100.00
19576;BME280;41589;51.196;7.074;2023-04-06T23:25:31;98708.34;;;8.40;100.00
19576;BME280;41589;51.196;7.074;2023-04-06T23:30:44;98712.91;;;8.47;100.00
19576;BME280;41589;51.196;7.074;2023-04-06T23:41:45;98700.03;;;8.58;100.00
19576;BME280;41589;51.196;7.074;2023-04-06T23:47:29;98716.88;;;8.58;100.00
19576;BME280;41589;51.196;7.074;2023-04-06T23:52:33;98708.03;;;8.69;100.00
19576;BME280;41589;51.196;7.074;2023-04-06T23:57:52;98706.47;;;8.68;100.00
